Time;durP1;ratioP1;P1;durP2;ratioP2;P2;SDS_P1;SDS_P2;PMS_P1;PMS_P2;Temp;Humidity;BMP_temperature;BMP_pressure;BME280_temperature;BME280_humidity;BME280_pressure;Samples;Min_cycle;Max_cycle;Signal;HPM_P1;HPM_P2
2022/04/01 00:02:22;;;;;;;70.53;11.30;;;;;;;;;;5053764;27;20201;-72
2022/04/01 00:04:49;;;;;;;71.22;11.63;;;;;;;;;;5049830;28;20253;-72
2022/04/01 00:07:18;;;;;;;71.05;12.10;;;;;;;;;;5052648;28;20233;-73
2022/04/01 00:09:45;;;;;;;72.70;11.15;;;;;;;;;;5052900;28;20286;-73
2022/04/01 00:12:12;;;;;;;70.32;10.85;;;;;;;;;;5054106;27;20209;-72
2022/04/01 00:14:40;;;;;;;72.25;11.32;;;;;;;;;;5053605;28;20201;-70
2022/04/01 00:17:07;;;;;;;73.15;11.65;;;;;;;;;;5054382;28;20293;-71
2022/04/01 00:19:34;;;;;;;69.97;11.48;;;;;;;;;;5054153;28;20205;-73
2022/04/01 00:22:01;;;;;;;71.25;11.45;;;;;;;;;;5054538;28;20273;-73
2022/04/01 00:24:30;;;;;;;70.80;9.65;;;;;;;;;;5054102;28;20272;-73
2022/04/01 00:26:58;;;;;;;70.55;11.02;;;;;;;;;;5053284;28;20286;-73
2022/04/01 00:29:25;;;;;;;71.25;10.95;;;;;;;;;;5052743;28;20213;-72
2022/04/01 00:31:58;;;;;;;69.63;11.38;;;;;;;;;;5051594;27;20244;-73
2022/04/01 00:34:26;;;;;;;72.85;11.95;;;;;;;;;;5053125;27;20197;-73
2022/04/01 00:36:54;;;;;;;69.15;11.75;;;;;;;;;;5053882;28;20229;-73
2022/04/01 00:39:22;;;;;;;70.43;10.75;;;;;;;;;;5050512;28;20317;-72
2022/04/01 00:41:50;;;;;;;69.40;11.15;;;;;;;;;;5051158;28;20700;-72
2022/04/01 00:44:18;;;;;;;69.05;11.00;;;;;;;;;;5050570;28;20558;-73
2022/04/01 00:46:47;;;;;;;69.78;10.25;;;;;;;;;;5051930;28;20229;-73
2022/04/01 00:49:14;;;;;;;70.72;10.38;;;;;;;;;;5051539;28;20229;-73
2022/04/01 00:51:42;;;;;;;68.80;10.80;;;;;;;;;;5051274;28;20206;-72
2022/04/01 00:54:10;;;;;;;68.00;9.70;;;;;;;;;;5049390;27;20205;-73
2022/04/01 00:56:37;;;;;;;72.20;10.75;;;;;;;;;;5049647;28;20206;-73
2022/04/01 00:59:06;;;;;;;69.32;10.20;;;;;;;;;;5048977;28;20202;-73
2022/04/01 01:01:35;;;;;;;68.22;10.40;;;;;;;;;;5050408;28;20580;-73
2022/04/01 01:04:02;;;;;;;68.50;9.82;;;;;;;;;;5048000;27;20205;-73
2022/04/01 01:06:30;;;;;;;69.60;9.85;;;;;;;;;;5049088;27;20710;-72
2022/04/01 01:08:57;;;;;;;69.28;10.23;;;;;;;;;;5050099;28;20222;-74
2022/04/01 01:11:25;;;;;;;67.95;10.05;;;;;;;;;;5050771;28;20205;-72
2022/04/01 01:13:53;;;;;;;67.35;9.05;;;;;;;;;;5049519;27;20217;-73
2022/04/01 01:16:22;;;;;;;68.85;11.13;;;;;;;;;;5049621;28;20205;-73
2022/04/01 01:19:00;;;;;;;69.22;9.55;;;;;;;;;;5048655;28;20201;-73
2022/04/01 01:21:27;;;;;;;68.40;9.70;;;;;;;;;;5049123;28;20205;-73
2022/04/01 01:23:56;;;;;;;67.95;9.60;;;;;;;;;;5049495;28;20500;-72
2022/04/01 01:26:25;;;;;;;69.07;9.90;;;;;;;;;;5048894;28;20301;-71
2022/04/01 01:28:52;;;;;;;70.38;11.60;;;;;;;;;;5049432;28;20244;-72
2022/04/01 01:31:19;;;;;;;67.75;9.65;;;;;;;;;;5050135;28;20578;-72
2022/04/01 01:33:46;;;;;;;66.95;9.27;;;;;;;;;;5049649;27;20212;-72
2022/04/01 01:36:13;;;;;;;70.60;9.65;;;;;;;;;;5049272;28;20232;-73
2022/04/01 01:38:40;;;;;;;69.78;9.60;;;;;;;;;;5045754;27;20228;-73
2022/04/01 01:41:08;;;;;;;66.35;9.02;;;;;;;;;;5048482;28;20301;-72
2022/04/01 01:43:36;;;;;;;68.97;10.10;;;;;;;;;;5049148;28;20287;-73
2022/04/01 01:46:03;;;;;;;66.55;9.70;;;;;;;;;;5049060;28;20216;-73
2022/04/01 01:48:31;;;;;;;68.07;9.95;;;;;;;;;;5047495;28;20248;-72
2022/04/01 01:56:27;;;;;;;67.28;9.30;;;;;;;;;;5048619;28;20719;-72
2022/04/01 01:58:55;;;;;;;66.35;8.50;;;;;;;;;;5047859;28;20293;-73
2022/04/01 02:01:23;;;;;;;65.88;8.75;;;;;;;;;;5048455;28;20201;-72
2022/04/01 02:03:51;;;;;;;68.07;9.57;;;;;;;;;;5048480;28;20212;-73
2022/04/01 02:06:21;;;;;;;69.57;9.85;;;;;;;;;;5048722;28;20216;-72
2022/04/01 02:08:50;;;;;;;66.20;9.07;;;;;;;;;;5047609;28;20233;-72
2022/04/01 02:11:17;;;;;;;67.65;9.20;;;;;;;;;;5048767;27;20249;-72
2022/04/01 02:13:45;;;;;;;68.32;9.57;;;;;;;;;;5048156;27;20217;-71
2022/04/01 02:16:14;;;;;;;69.90;11.32;;;;;;;;;;5048358;28;20713;-72
2022/04/01 02:18:41;;;;;;;69.70;10.38;;;;;;;;;;5047628;28;20218;-71
2022/04/01 02:21:10;;;;;;;68.43;11.32;;;;;;;;;;5048090;28;20379;-71
2022/04/01 02:23:38;;;;;;;67.70;9.70;;;;;;;;;;5048411;28;20209;-71
2022/04/01 02:26:05;;;;;;;68.55;10.88;;;;;;;;;;5047888;28;20210;-72
2022/04/01 02:28:32;;;;;;;67.75;9.90;;;;;;;;;;5047106;28;20233;-72
2022/04/01 02:31:00;;;;;;;68.68;9.98;;;;;;;;;;5048456;28;20300;-72
2022/04/01 02:33:28;;;;;;;67.30;10.45;;;;;;;;;;5048167;27;20243;-70
2022/04/01 02:35:57;;;;;;;67.78;10.20;;;;;;;;;;5048449;28;20296;-72
2022/04/01 02:38:25;;;;;;;69.75;11.43;;;;;;;;;;5047390;28;20296;-71
2022/04/01 02:40:53;;;;;;;69.30;10.38;;;;;;;;;;5047549;28;20267;-72
2022/04/01 02:43:20;;;;;;;67.63;10.23;;;;;;;;;;5044452;27;20212;-72
2022/04/01 02:45:48;;;;;;;67.47;9.93;;;;;;;;;;5048215;28;20638;-72
2022/04/01 02:48:16;;;;;;;67.72;10.23;;;;;;;;;;5046923;28;20230;-70
2022/04/01 02:50:44;;;;;;;67.32;9.90;;;;;;;;;;5048052;28;20206;-72
2022/04/01 02:53:12;;;;;;;70.20;9.75;;;;;;;;;;5048052;28;20229;-72
2022/04/01 02:55:39;;;;;;;69.97;10.05;;;;;;;;;;5051448;27;20202;-72
2022/04/01 02:58:06;;;;;;;67.05;9.50;;;;;;;;;;5050660;28;20218;-72
2022/04/01 03:00:34;;;;;;;68.95;10.00;;;;;;;;;;5051260;28;20205;-75
2022/04/01 03:03:01;;;;;;;67.97;9.43;;;;;;;;;;5051436;28;20300;-73
2022/04/01 03:05:32;;;;;;;69.32;10.05;;;;;;;;;;5056171;28;20579;-72
2022/04/01 03:08:00;;;;;;;66.50;9.48;;;;;;;;;;5057016;28;20237;-71
2022/04/01 03:10:30;;;;;;;67.72;10.02;;;;;;;;;;5058347;28;20736;-72
2022/04/01 03:12:58;;;;;;;69.10;9.88;;;;;;;;;;5057603;28;20210;-71
2022/04/01 03:15:25;;;;;;;70.43;9.77;;;;;;;;;;5054886;27;20704;-72
2022/04/01 03:17:52;;;;;;;69.40;10.30;;;;;;;;;;5055720;28;20739;-71
2022/04/01 03:20:19;;;;;;;67.45;10.52;;;;;;;;;;5056022;28;20201;-72
2022/04/01 03:22:47;;;;;;;66.97;10.15;;;;;;;;;;5056257;28;20256;-71
2022/04/01 03:25:16;;;;;;;67.88;11.30;;;;;;;;;;5056178;28;20293;-72
2022/04/01 03:27:43;;;;;;;69.97;10.55;;;;;;;;;;5055245;28;20249;-72
2022/04/01 03:30:11;;;;;;;67.20;9.52;;;;;;;;;;5057441;28;20321;-70
2022/04/01 03:32:38;;;;;;;67.22;9.95;;;;;;;;;;5056790;28;20212;-72
2022/04/01 03:35:06;;;;;;;70.00;10.45;;;;;;;;;;5055046;27;20241;-71
2022/04/01 03:37:33;;;;;;;67.10;10.00;;;;;;;;;;5055019;28;20236;-71
2022/04/01 03:40:01;;;;;;;67.25;10.52;;;;;;;;;;5056067;28;20197;-71
2022/04/01 03:42:30;;;;;;;67.72;10.13;;;;;;;;;;5056770;28;20254;-71
2022/04/01 03:44:58;;;;;;;67.30;9.68;;;;;;;;;;5054831;27;20209;-71
2022/04/01 03:47:31;;;;;;;67.97;10.35;;;;;;;;;;5056541;28;20234;-70
2022/04/01 03:50:00;;;;;;;65.38;9.23;;;;;;;;;;5056914;28;20236;-71
2022/04/01 03:52:28;;;;;;;65.82;8.73;;;;;;;;;;5058615;28;20233;-72
2022/04/01 03:54:59;;;;;;;68.97;10.40;;;;;;;;;;5055703;27;20216;-72
2022/04/01 03:57:34;;;;;;;66.55;9.00;;;;;;;;;;5050499;28;20257;-73
2022/04/01 04:00:04;;;;;;;65.90;9.75;;;;;;;;;;5051104;28;20208;-72
2022/04/01 04:02:33;;;;;;;68.38;9.80;;;;;;;;;;5050597;28;20641;-73
2022/04/01 04:05:01;;;;;;;66.75;9.80;;;;;;;;;;5051111;28;20201;-73
2022/04/01 04:07:29;;;;;;;66.63;9.30;;;;;;;;;;5049706;28;20245;-73
2022/04/01 04:09:56;;;;;;;65.93;9.07;;;;;;;;;;5050304;28;20230;-71
2022/04/01 04:12:23;;;;;;;66.95;9.45;;;;;;;;;;5050065;28;20250;-73
2022/04/01 04:14:53;;;;;;;68.53;9.85;;;;;;;;;;5050298;27;20209;-73
2022/04/01 04:17:26;;;;;;;64.40;8.68;;;;;;;;;;5047680;27;20317;-72
2022/04/01 04:19:58;;;;;;;66.63;8.52;;;;;;;;;;5050375;28;20208;-73
2022/04/01 04:22:31;;;;;;;65.93;8.85;;;;;;;;;;5049853;28;20578;-72
2022/04/01 04:24:59;;;;;;;67.10;10.00;;;;;;;;;;5050401;28;20626;-73
2022/04/01 04:27:27;;;;;;;66.00;9.60;;;;;;;;;;5049306;28;20226;-73
2022/04/01 04:29:57;;;;;;;69.00;10.75;;;;;;;;;;5049839;28;20252;-72
2022/04/01 04:32:29;;;;;;;66.72;9.15;;;;;;;;;;5050173;28;20205;-74
2022/04/01 04:34:58;;;;;;;66.10;9.15;;;;;;;;;;5049810;27;20212;-73
2022/04/01 04:37:27;;;;;;;68.25;9.77;;;;;;;;;;5049270;28;20721;-73
2022/04/01 04:39:55;;;;;;;66.40;9.65;;;;;;;;;;5050293;28;20289;-73
2022/04/01 04:42:22;;;;;;;66.32;8.90;;;;;;;;;;5049441;28;20216;-72
2022/04/01 04:44:50;;;;;;;65.60;9.02;;;;;;;;;;5050632;28;20209;-72
2022/04/01 04:47:19;;;;;;;66.80;9.68;;;;;;;;;;5049094;28;20769;-73
2022/04/01 04:49:48;;;;;;;68.07;9.80;;;;;;;;;;5047444;27;20321;-73
2022/04/01 04:52:17;;;;;;;66.88;9.23;;;;;;;;;;5050095;28;20235;-72
2022/04/01 04:54:44;;;;;;;65.78;8.85;;;;;;;;;;5050214;28;20636;-72
2022/04/01 04:57:12;;;;;;;66.05;9.65;;;;;;;;;;5048858;27;20602;-72
2022/04/01 04:59:42;;;;;;;64.72;8.73;;;;;;;;;;5049643;28;20197;-73
2022/04/01 05:02:12;;;;;;;66.03;9.18;;;;;;;;;;5049313;28;20773;-72
2022/04/01 05:04:48;;;;;;;65.72;8.25;;;;;;;;;;5049700;28;20209;-73
2022/04/01 05:07:33;;;;;;;63.85;8.30;;;;;;;;;;5048290;28;20245;-72
2022/04/01 05:10:03;;;;;;;66.30;8.70;;;;;;;;;;5049192;28;20225;-72
2022/04/01 05:12:34;;;;;;;65.32;8.70;;;;;;;;;;5049483;28;20210;-72
2022/04/01 05:15:08;;;;;;;65.05;9.05;;;;;;;;;;5049564;28;20209;-72
2022/04/01 05:17:36;;;;;;;66.78;9.40;;;;;;;;;;5048528;27;20229;-73
2022/04/01 05:20:04;;;;;;;69.97;8.95;;;;;;;;;;5047362;27;20621;-73
2022/04/01 05:22:37;;;;;;;65.25;8.88;;;;;;;;;;5049487;28;20233;-73
2022/04/01 05:25:05;;;;;;;65.03;8.25;;;;;;;;;;5049508;28;20617;-73
2022/04/01 05:27:40;;;;;;;64.35;7.47;;;;;;;;;;5048211;28;20764;-73
2022/04/01 05:30:13;;;;;;;66.53;8.80;;;;;;;;;;5048880;28;20225;-72
2022/04/01 05:32:41;;;;;;;65.35;8.85;;;;;;;;;;5050128;28;20679;-73
2022/04/01 05:35:09;;;;;;;65.88;8.43;;;;;;;;;;5049996;28;20220;-73
2022/04/01 05:37:38;;;;;;;64.32;8.05;;;;;;;;;;5049010;27;20317;-72
2022/04/01 05:40:07;;;;;;;67.68;8.75;;;;;;;;;;5051196;28;20225;-73
2022/04/01 05:42:34;;;;;;;63.63;7.95;;;;;;;;;;5051019;28;20221;-72
2022/04/01 05:45:02;;;;;;;64.05;8.52;;;;;;;;;;5051201;28;20740;-73
2022/04/01 05:47:31;;;;;;;64.82;7.47;;;;;;;;;;5049328;28;20605;-73
2022/04/01 05:49:59;;;;;;;64.43;8.38;;;;;;;;;;5050194;28;20226;-73
2022/04/01 05:52:26;;;;;;;64.55;8.30;;;;;;;;;;5048175;27;20209;-73
2022/04/01 05:54:56;;;;;;;64.25;7.85;;;;;;;;;;5050719;28;20209;-73
2022/04/01 05:57:23;;;;;;;64.28;8.23;;;;;;;;;;5048681;27;20232;-73
2022/04/01 05:59:50;;;;;;;67.30;8.90;;;;;;;;;;5049063;28;20201;-73
2022/04/01 06:02:30;;;;;;;64.88;8.18;;;;;;;;;;5048715;28;20304;-73
2022/04/01 06:05:06;;;;;;;64.07;8.90;;;;;;;;;;5048619;28;20209;-70
2022/04/01 06:07:36;;;;;;;66.22;8.82;;;;;;;;;;5048167;28;20237;-73
2022/04/01 06:10:09;;;;;;;64.57;8.05;;;;;;;;;;5049066;28;20317;-73
2022/04/01 06:12:39;;;;;;;65.93;8.85;;;;;;;;;;5050039;28;20205;-73
2022/04/01 06:15:11;;;;;;;65.68;8.77;;;;;;;;;;5049429;28;20214;-72
2022/04/01 06:17:43;;;;;;;65.10;9.40;;;;;;;;;;5048800;27;20225;-73
2022/04/01 06:20:12;;;;;;;70.47;10.30;;;;;;;;;;5050397;28;20301;-73
2022/04/01 06:22:44;;;;;;;66.47;9.68;;;;;;;;;;5049268;28;20703;-73
2022/04/01 06:25:15;;;;;;;68.40;11.18;;;;;;;;;;5048519;27;20220;-73
2022/04/01 06:27:44;;;;;;;67.35;10.35;;;;;;;;;;5049309;28;20222;-73
2022/04/01 06:30:12;;;;;;;64.88;8.98;;;;;;;;;;5052837;28;20257;-73
2022/04/01 06:32:45;;;;;;;66.43;9.35;;;;;;;;;;5052172;28;20202;-73
2022/04/01 06:35:19;;;;;;;66.50;9.57;;;;;;;;;;5051991;28;20205;-73
2022/04/01 06:37:51;;;;;;;64.63;8.75;;;;;;;;;;5051281;27;20225;-72
2022/04/01 06:40:22;;;;;;;64.63;9.18;;;;;;;;;;5051787;28;20297;-73
2022/04/01 06:42:51;;;;;;;66.20;8.85;;;;;;;;;;5051675;28;20233;-73
2022/04/01 06:45:19;;;;;;;66.47;9.57;;;;;;;;;;5051634;28;20212;-73
2022/04/01 06:47:46;;;;;;;66.95;8.95;;;;;;;;;;5051598;28;20229;-73
2022/04/01 06:50:16;;;;;;;65.82;9.20;;;;;;;;;;5051495;28;20320;-73
2022/04/01 06:52:43;;;;;;;66.57;8.68;;;;;;;;;;5051203;28;20633;-72
2022/04/01 06:55:11;;;;;;;65.07;9.10;;;;;;;;;;5049133;27;20288;-69
2022/04/01 06:57:40;;;;;;;66.70;8.68;;;;;;;;;;5050283;27;20275;-72
2022/04/01 07:00:08;;;;;;;66.57;9.80;;;;;;;;;;5052358;28;20324;-72
2022/04/01 07:02:36;;;;;;;66.07;8.57;;;;;;;;;;5052106;28;20209;-71
2022/04/01 07:05:03;;;;;;;66.93;9.57;;;;;;;;;;5053080;28;20301;-73
2022/04/01 07:07:30;;;;;;;66.40;9.73;;;;;;;;;;5053714;28;20330;-74
2022/04/01 07:09:57;;;;;;;64.72;9.02;;;;;;;;;;5053945;28;20222;-74
2022/04/01 07:12:25;;;;;;;71.22;11.98;;;;;;;;;;5054990;28;20235;-73
2022/04/01 07:14:53;;;;;;;66.68;10.60;;;;;;;;;;5054688;28;20206;-74
2022/04/01 07:17:20;;;;;;;66.38;9.32;;;;;;;;;;5055143;27;20245;-74
2022/04/01 07:19:48;;;;;;;67.78;9.50;;;;;;;;;;5056095;28;20261;-73
2022/04/01 07:22:15;;;;;;;68.78;11.30;;;;;;;;;;5055823;28;20216;-72
2022/04/01 07:24:42;;;;;;;67.90;11.25;;;;;;;;;;5054814;28;20231;-73
2022/04/01 07:27:11;;;;;;;67.60;10.65;;;;;;;;;;5047316;27;20309;-69
2022/04/01 07:29:38;;;;;;;65.88;9.45;;;;;;;;;;5036282;28;20227;-74
2022/04/01 07:34:52;;;;;;;67.18;10.10;;;;;;;;;;5036252;28;20205;-73
2022/04/01 07:37:21;;;;;;;67.03;10.48;;;;;;;;;;5034089;28;20298;-74
2022/04/01 07:39:49;;;;;;;66.10;9.50;;;;;;;;;;5035995;28;20234;-74
2022/04/01 07:42:16;;;;;;;67.90;10.60;;;;;;;;;;5035028;28;20230;-73
2022/04/01 07:44:43;;;;;;;64.45;8.45;;;;;;;;;;5035418;28;20229;-73
2022/04/01 07:47:14;;;;;;;67.03;10.60;;;;;;;;;;5035559;28;20314;-73
2022/04/01 07:49:41;;;;;;;65.22;8.98;;;;;;;;;;5035917;28;20226;-73
2022/04/01 07:52:09;;;;;;;64.90;8.95;;;;;;;;;;5035775;28;20662;-73
2022/04/01 07:54:36;;;;;;;64.93;9.02;;;;;;;;;;5035364;28;20241;-73
2022/04/01 07:57:03;;;;;;;66.20;9.57;;;;;;;;;;5034286;28;20315;-70
2022/04/01 07:59:30;;;;;;;65.80;9.05;;;;;;;;;;5042665;27;20295;-73
2022/04/01 08:01:58;;;;;;;68.13;10.30;;;;;;;;;;5055474;28;20266;-73
2022/04/01 08:04:26;;;;;;;64.47;8.85;;;;;;;;;;5054248;28;20211;-73
2022/04/01 08:06:54;;;;;;;65.55;8.40;;;;;;;;;;5053407;28;20229;-74
2022/04/01 08:09:21;;;;;;;64.53;9.07;;;;;;;;;;5053066;28;20219;-73
2022/04/01 08:11:48;;;;;;;65.03;9.45;;;;;;;;;;5053626;28;20216;-73
2022/04/01 08:14:17;;;;;;;64.90;8.60;;;;;;;;;;5052120;28;20289;-74
2022/04/01 08:16:44;;;;;;;65.03;9.02;;;;;;;;;;5052785;28;20206;-71
2022/04/01 08:19:11;;;;;;;63.88;8.02;;;;;;;;;;5051761;27;20298;-73
2022/04/01 08:21:40;;;;;;;64.00;8.20;;;;;;;;;;5052133;28;20198;-74
2022/04/01 08:24:07;;;;;;;65.07;8.93;;;;;;;;;;5052478;28;20315;-73
2022/04/01 08:26:35;;;;;;;65.20;8.20;;;;;;;;;;5052338;28;20375;-74
2022/04/01 08:29:02;;;;;;;65.28;8.73;;;;;;;;;;5051168;28;20211;-74
2022/04/01 08:31:33;;;;;;;65.43;9.00;;;;;;;;;;5048843;27;20222;-73
2022/04/01 08:34:00;;;;;;;66.85;10.52;;;;;;;;;;5051178;28;20221;-73
2022/04/01 08:36:27;;;;;;;66.90;9.77;;;;;;;;;;5051429;28;20274;-72
2022/04/01 08:38:56;;;;;;;65.55;9.43;;;;;;;;;;5050491;27;20241;-75
2022/04/01 08:41:23;;;;;;;66.15;8.88;;;;;;;;;;5051537;28;20216;-74
2022/04/01 08:43:51;;;;;;;64.60;9.40;;;;;;;;;;5051199;28;20210;-73
2022/04/01 08:46:19;;;;;;;64.30;8.32;;;;;;;;;;5050608;28;20216;-73
2022/04/01 08:48:47;;;;;;;65.38;8.43;;;;;;;;;;5052139;28;20788;-73
2022/04/01 08:51:14;;;;;;;66.18;8.77;;;;;;;;;;5052398;28;20222;-72
2022/04/01 08:53:44;;;;;;;65.35;7.90;;;;;;;;;;5053157;28;20215;-73
2022/04/01 08:56:12;;;;;;;63.53;7.57;;;;;;;;;;5053299;28;20215;-73
2022/04/01 08:58:40;;;;;;;65.57;8.85;;;;;;;;;;5051425;27;20318;-71
2022/04/01 09:01:07;;;;;;;64.38;8.18;;;;;;;;;;5051360;28;20205;-74
2022/04/01 09:03:35;;;;;;;65.75;8.45;;;;;;;;;;5047325;28;20238;-73
2022/04/01 09:06:03;;;;;;;65.50;8.65;;;;;;;;;;5050697;28;20216;-73
2022/04/01 09:08:33;;;;;;;63.78;7.85;;;;;;;;;;5049650;28;20786;-73
2022/04/01 09:11:01;;;;;;;64.65;8.63;;;;;;;;;;5050770;28;20316;-72
2022/04/01 09:13:31;;;;;;;64.05;8.57;;;;;;;;;;5051210;28;20231;-73
2022/04/01 09:15:58;;;;;;;63.65;7.63;;;;;;;;;;5050423;28;20293;-74
2022/04/01 09:18:36;;;;;;;63.40;7.63;;;;;;;;;;5050340;28;20316;-73
2022/04/01 09:21:03;;;;;;;64.00;7.65;;;;;;;;;;5052132;28;20237;-74
2022/04/01 09:23:31;;;;;;;63.25;7.78;;;;;;;;;;5051913;28;20236;-72
2022/04/01 09:25:59;;;;;;;63.72;7.47;;;;;;;;;;5051690;28;20217;-73
2022/04/01 09:28:27;;;;;;;64.20;7.43;;;;;;;;;;5049660;28;20232;-74
2022/04/01 09:31:00;;;;;;;63.45;7.40;;;;;;;;;;5050176;28;20221;-74
2022/04/01 09:33:33;;;;;;;63.20;7.60;;;;;;;;;;5049796;27;20209;-73
2022/04/01 09:36:04;;;;;;;63.45;7.20;;;;;;;;;;5050578;28;20213;-73
2022/04/01 09:38:31;;;;;;;64.55;7.05;;;;;;;;;;5050379;28;20234;-74
2022/04/01 09:41:02;;;;;;;61.88;7.10;;;;;;;;;;5050398;27;20212;-71
2022/04/01 09:43:30;;;;;;;62.40;6.90;;;;;;;;;;5050768;28;20209;-72
2022/04/01 09:46:04;;;;;;;65.50;8.20;;;;;;;;;;5051259;28;20209;-73
2022/04/01 09:48:39;;;;;;;62.65;6.75;;;;;;;;;;5053388;28;20247;-73
2022/04/01 09:51:06;;;;;;;63.70;7.15;;;;;;;;;;5053034;28;20216;-73
2022/04/01 09:53:35;;;;;;;63.28;6.75;;;;;;;;;;5053204;28;20216;-72
2022/04/01 09:56:02;;;;;;;63.22;6.38;;;;;;;;;;5053005;28;20205;-73
2022/04/01 09:58:29;;;;;;;63.25;6.97;;;;;;;;;;5052909;28;20333;-73
2022/04/01 10:01:01;;;;;;;62.15;6.65;;;;;;;;;;5051008;27;20269;-73
2022/04/01 10:03:28;;;;;;;62.20;6.40;;;;;;;;;;5049627;28;20205;-72
2022/04/01 10:05:55;;;;;;;61.88;6.20;;;;;;;;;;5049736;27;20206;-71
2022/04/01 10:08:24;;;;;;;61.30;5.50;;;;;;;;;;5052313;28;20248;-72
2022/04/01 10:10:51;;;;;;;62.50;6.55;;;;;;;;;;5051718;28;20232;-72
2022/04/01 10:13:20;;;;;;;70.18;9.10;;;;;;;;;;5050368;28;20292;-72
2022/04/01 10:15:47;;;;;;;62.85;6.03;;;;;;;;;;5049797;28;20206;-72
2022/04/01 10:18:17;;;;;;;62.38;6.72;;;;;;;;;;5048782;28;20606;-72
2022/04/01 10:20:44;;;;;;;63.65;7.88;;;;;;;;;;5049788;27;20270;-72
2022/04/01 10:23:12;;;;;;;63.80;7.32;;;;;;;;;;5051132;28;20229;-72
2022/04/01 10:25:43;;;;;;;65.53;8.95;;;;;;;;;;5049457;28;20212;-71
2022/04/01 10:28:11;;;;;;;62.33;6.28;;;;;;;;;;5048210;28;20337;-71
2022/04/01 10:30:40;;;;;;;61.65;5.65;;;;;;;;;;5049471;28;20225;-71
2022/04/01 10:33:09;;;;;;;64.38;8.27;;;;;;;;;;5048996;28;20247;-69
2022/04/01 10:35:39;;;;;;;62.35;5.90;;;;;;;;;;5049283;28;20205;-72
2022/04/01 10:38:16;;;;;;;63.15;6.40;;;;;;;;;;5048009;28;20235;-73
2022/04/01 10:40:45;;;;;;;63.60;7.18;;;;;;;;;;5048490;27;20212;-73
2022/04/01 10:43:13;;;;;;;61.10;5.90;;;;;;;;;;5048646;28;20205;-71
2022/04/01 10:45:42;;;;;;;61.30;5.80;;;;;;;;;;5048596;28;20228;-72
2022/04/01 10:54:06;;;;;;;61.38;6.03;;;;;;;;;;5048631;28;20204;-72
2022/04/01 10:56:36;;;;;;;61.83;5.80;;;;;;;;;;5048072;28;20210;-73
2022/04/01 10:59:04;;;;;;;60.75;5.88;;;;;;;;;;5047677;28;20212;-72
2022/04/01 11:01:31;;;;;;;63.70;7.22;;;;;;;;;;5048332;28;20202;-72
2022/04/01 11:04:02;;;;;;;61.28;5.85;;;;;;;;;;5048485;28;20220;-73
2022/04/01 11:06:29;;;;;;;61.08;5.88;;;;;;;;;;5048562;28;20213;-71
2022/04/01 11:08:57;;;;;;;60.85;4.88;;;;;;;;;;5083665;27;20546;-72
2022/04/01 11:11:26;;;;;;;60.75;5.30;;;;;;;;;;5156434;27;20226;-73
2022/04/01 11:14:03;;;;;;;61.40;5.78;;;;;;;;;;5156719;27;20199;-73
2022/04/01 11:16:45;;;;;;;60.58;5.20;;;;;;;;;;5160698;27;20206;-73
2022/04/01 11:19:17;;;;;;;60.30;5.22;;;;;;;;;;5159375;27;20202;-72
2022/04/01 11:21:44;;;;;;;60.50;5.38;;;;;;;;;;5156081;27;20202;-73
2022/04/01 11:24:41;;;;;;;61.03;5.40;;;;;;;;;;5156214;27;20554;-70
2022/04/01 11:27:25;;;;;;;60.67;5.60;;;;;;;;;;5121835;27;20261;-71
2022/04/01 11:30:06;;;;;;;61.17;5.30;;;;;;;;;;5159469;27;20565;-72
2022/04/01 11:32:34;;;;;;;59.90;5.10;;;;;;;;;;5158172;27;20459;-73
2022/04/01 11:35:02;;;;;;;60.70;4.93;;;;;;;;;;5158968;27;20292;-71
2022/04/01 11:37:29;;;;;;;60.97;5.70;;;;;;;;;;5157060;27;20572;-72
2022/04/01 11:40:07;;;;;;;60.80;5.45;;;;;;;;;;5152362;27;20202;-71
2022/04/01 11:42:35;;;;;;;60.38;5.80;;;;;;;;;;5156101;27;20706;-71
2022/04/01 11:45:02;;;;;;;63.90;5.72;;;;;;;;;;5155232;27;20206;-72
2022/04/01 11:47:34;;;;;;;60.05;4.82;;;;;;;;;;5153066;27;20787;-72
2022/04/01 11:50:08;;;;;;;62.20;6.22;;;;;;;;;;5050461;28;20249;-73
2022/04/01 11:52:39;;;;;;;60.35;5.32;;;;;;;;;;5050079;28;20225;-72
2022/04/01 11:55:11;;;;;;;60.58;5.47;;;;;;;;;;5050677;28;20219;-72
2022/04/01 11:57:40;;;;;;;60.88;5.45;;;;;;;;;;5050013;28;20223;-73
2022/04/01 12:00:10;;;;;;;62.10;6.05;;;;;;;;;;5050636;28;20312;-73
2022/04/01 12:02:38;;;;;;;61.10;4.68;;;;;;;;;;5050768;28;20212;-73
2022/04/01 12:05:05;;;;;;;61.72;6.35;;;;;;;;;;5050823;28;20301;-73
2022/04/01 12:10:20;;;;;;;61.67;6.03;;;;;;;;;;5049954;28;20197;-72
2022/04/01 12:12:55;;;;;;;63.20;6.28;;;;;;;;;;5050014;28;20225;-72
2022/04/01 12:15:32;;;;;;;62.17;5.72;;;;;;;;;;5049549;28;20292;-72
2022/04/01 12:18:00;;;;;;;60.78;5.78;;;;;;;;;;5047138;27;20336;-72
2022/04/01 12:20:28;;;;;;;60.88;5.65;;;;;;;;;;5050494;28;20216;-72
2022/04/01 12:22:56;;;;;;;61.65;6.00;;;;;;;;;;5050241;28;20211;-72
2022/04/01 12:25:23;;;;;;;63.55;5.90;;;;;;;;;;5050262;28;20209;-72
2022/04/01 12:27:56;;;;;;;61.92;6.43;;;;;;;;;;5049511;28;20222;-72
2022/04/01 12:30:30;;;;;;;61.75;6.65;;;;;;;;;;5050429;28;20210;-72
2022/04/01 12:32:58;;;;;;;65.53;6.13;;;;;;;;;;5050491;28;20229;-72
2022/04/01 12:35:25;;;;;;;60.70;5.85;;;;;;;;;;5050838;28;20301;-72
2022/04/01 12:38:05;;;;;;;61.72;6.22;;;;;;;;;;5049687;28;20229;-72
2022/04/01 12:40:50;;;;;;;63.28;6.50;;;;;;;;;;5095032;27;20225;-71
2022/04/01 12:43:32;;;;;;;63.22;7.50;;;;;;;;;;5062331;28;20225;-71
2022/04/01 12:46:00;;;;;;;63.00;7.20;;;;;;;;;;5041222;28;20236;-70
2022/04/01 12:48:28;;;;;;;62.95;7.70;;;;;;;;;;5029277;28;20231;-71
2022/04/01 12:50:58;;;;;;;62.78;7.30;;;;;;;;;;5043336;27;20304;-71
2022/04/01 12:53:25;;;;;;;64.30;8.13;;;;;;;;;;5050106;28;20202;-71
2022/04/01 12:55:52;;;;;;;62.80;7.20;;;;;;;;;;5050560;28;20377;-71
2022/04/01 12:58:22;;;;;;;64.03;8.25;;;;;;;;;;5049190;28;20225;-71
2022/04/01 13:00:50;;;;;;;63.65;8.15;;;;;;;;;;5048334;27;20620;-71
2022/04/01 13:03:17;;;;;;;65.75;8.77;;;;;;;;;;5050194;28;20296;-71
2022/04/01 13:05:44;;;;;;;64.35;8.40;;;;;;;;;;5050065;28;20296;-71
2022/04/01 13:08:12;;;;;;;64.25;8.43;;;;;;;;;;5050108;28;20240;-71
2022/04/01 13:10:39;;;;;;;63.38;7.82;;;;;;;;;;5052292;28;20209;-71
2022/04/01 13:13:17;;;;;;;64.82;8.43;;;;;;;;;;5049686;28;20235;-71
2022/04/01 13:15:52;;;;;;;66.68;9.02;;;;;;;;;;5049976;28;20205;-70
2022/04/01 13:18:23;;;;;;;63.05;7.75;;;;;;;;;;5048978;28;20225;-71
2022/04/01 13:20:50;;;;;;;62.92;7.75;;;;;;;;;;5048322;28;20213;-69
2022/04/01 13:23:17;;;;;;;64.07;8.02;;;;;;;;;;5049367;28;20206;-70
2022/04/01 13:25:45;;;;;;;64.45;8.70;;;;;;;;;;5049261;28;20206;-70
2022/04/01 13:28:12;;;;;;;64.95;9.27;;;;;;;;;;5048631;28;20313;-71
2022/04/01 13:30:39;;;;;;;66.15;8.70;;;;;;;;;;5049710;28;20216;-70
2022/04/01 13:33:08;;;;;;;64.35;8.15;;;;;;;;;;5049376;28;20235;-70
2022/04/01 13:35:35;;;;;;;66.38;8.75;;;;;;;;;;5049398;28;20625;-70
2022/04/01 13:38:03;;;;;;;66.82;9.82;;;;;;;;;;5088038;27;20774;-71
2022/04/01 13:40:30;;;;;;;66.10;8.75;;;;;;;;;;5050821;28;20210;-72
2022/04/01 13:42:57;;;;;;;65.50;10.05;;;;;;;;;;5086860;27;20205;-70
2022/04/01 13:45:25;;;;;;;66.65;9.93;;;;;;;;;;5053308;28;20201;-70
2022/04/01 13:47:54;;;;;;;66.13;9.43;;;;;;;;;;5049712;28;20264;-72
2022/04/01 13:50:22;;;;;;;64.90;8.13;;;;;;;;;;5047655;28;20208;-72
2022/04/01 13:52:49;;;;;;;64.93;8.65;;;;;;;;;;5048796;28;20321;-70
2022/04/01 13:55:16;;;;;;;63.53;8.43;;;;;;;;;;5048888;28;20296;-72
2022/04/01 13:57:44;;;;;;;64.35;8.32;;;;;;;;;;5048284;28;20247;-71
2022/04/01 14:00:11;;;;;;;64.72;9.40;;;;;;;;;;5049075;28;20206;-72
2022/04/01 14:02:40;;;;;;;65.22;9.88;;;;;;;;;;5048943;28;20203;-70
2022/04/01 14:05:07;;;;;;;65.97;9.30;;;;;;;;;;5048911;28;20217;-73
2022/04/01 14:07:37;;;;;;;64.55;9.38;;;;;;;;;;5047780;28;20230;-72
2022/04/01 14:10:05;;;;;;;64.47;8.70;;;;;;;;;;5048326;28;20240;-73
2022/04/01 14:12:32;;;;;;;64.85;9.55;;;;;;;;;;5048749;28;20297;-72
2022/04/01 14:14:59;;;;;;;64.90;9.25;;;;;;;;;;5048868;28;20212;-72
2022/04/01 14:17:27;;;;;;;66.35;9.70;;;;;;;;;;5047985;28;20221;-72
2022/04/01 14:19:54;;;;;;;66.63;9.98;;;;;;;;;;5048869;28;20304;-72
2022/04/01 14:22:21;;;;;;;67.78;10.38;;;;;;;;;;5048545;28;20367;-72
2022/04/01 14:24:49;;;;;;;65.45;9.30;;;;;;;;;;5048598;28;20645;-71
2022/04/01 14:27:17;;;;;;;66.80;9.52;;;;;;;;;;5047971;28;20229;-71
2022/04/01 14:32:28;;;;;;;67.35;10.45;;;;;;;;;;5048481;28;20225;-71
2022/04/01 14:34:56;;;;;;;67.40;11.13;;;;;;;;;;5049033;28;20201;-72
2022/04/01 14:37:23;;;;;;;66.18;10.02;;;;;;;;;;5047546;28;20316;-71
2022/04/01 14:39:52;;;;;;;66.80;10.25;;;;;;;;;;5048650;28;20212;-71
2022/04/01 14:42:20;;;;;;;66.63;9.75;;;;;;;;;;5048355;28;20248;-72
2022/04/01 14:44:47;;;;;;;65.28;9.32;;;;;;;;;;5048469;28;20587;-72
2022/04/01 14:47:14;;;;;;;66.28;9.25;;;;;;;;;;5047592;28;20312;-72
2022/04/01 14:49:41;;;;;;;64.95;9.30;;;;;;;;;;5049167;28;20213;-72
2022/04/01 14:52:08;;;;;;;65.38;10.15;;;;;;;;;;5051704;28;20336;-71
2022/04/01 14:54:36;;;;;;;65.88;10.02;;;;;;;;;;5051847;28;20212;-71
2022/04/01 14:57:05;;;;;;;66.18;9.68;;;;;;;;;;5051716;28;20284;-72